createdAt,value
2023-03-22T00:00:47.280Z,99.90
2023-03-22T00:05:59.665Z,99.90
2023-03-22T00:11:07.621Z,99.90
2023-03-22T00:16:16.235Z,99.90
2023-03-22T00:21:23.481Z,99.90
2023-03-22T00:26:30.162Z,99.90
2023-03-22T00:31:36.989Z,99.90
2023-03-22T00:36:42.955Z,99.90
2023-03-22T00:41:50.213Z,99.90
2023-03-22T00:46:57.574Z,99.90
2023-03-22T00:52:04.460Z,99.90
2023-03-22T00:57:10.213Z,99.90
2023-03-22T01:02:18.195Z,99.90
2023-03-22T01:07:25.587Z,99.90
2023-03-22T01:12:32.716Z,99.90
2023-03-22T01:17:39.361Z,99.90
2023-03-22T01:22:46.801Z,99.90
2023-03-22T01:27:54.508Z,99.90
2023-03-22T01:33:01.246Z,99.90
2023-03-22T01:38:09.029Z,99.90
2023-03-22T01:43:18.914Z,99.90
2023-03-22T01:48:46.748Z,99.90
2023-03-22T01:54:00.841Z,99.90
2023-03-22T01:59:09.425Z,99.90
2023-03-22T02:04:26.125Z,99.90
2023-03-22T02:09:34.322Z,99.90
2023-03-22T02:15:12.580Z,99.90
2023-03-22T02:20:38.023Z,99.90
2023-03-22T02:25:56.736Z,99.90
2023-03-22T02:31:14.265Z,99.90
2023-03-22T02:36:53.094Z,99.90
2023-03-22T02:42:25.717Z,99.90
2023-03-22T02:47:53.452Z,99.90
2023-03-22T02:53:07.727Z,99.90
2023-03-22T02:58:23.134Z,99.90
2023-03-22T03:03:32.283Z,99.90
2023-03-22T03:08:41.885Z,99.90
2023-03-22T03:13:50.557Z,99.90
2023-03-22T03:19:11.396Z,99.90
2023-03-22T03:24:22.970Z,99.90
2023-03-22T03:29:56.958Z,99.90
2023-03-22T03:35:25.586Z,99.90
2023-03-22T03:40:35.518Z,99.90
2023-03-22T03:45:43.414Z,99.90
2023-03-22T03:50:53.718Z,99.90
2023-03-22T03:56:00.572Z,99.90
2023-03-22T04:01:06.798Z,99.90
2023-03-22T04:06:13.156Z,99.90
2023-03-22T04:11:21.996Z,99.90
2023-03-22T04:16:30.477Z,99.90
2023-03-22T04:21:37.668Z,99.90
2023-03-22T04:26:44.252Z,99.90
2023-03-22T04:31:52.627Z,99.90
2023-03-22T04:37:01.319Z,99.90
2023-03-22T04:42:08.694Z,99.90
2023-03-22T04:47:15.347Z,99.90
2023-03-22T04:52:22.270Z,99.90
2023-03-22T04:57:29.462Z,99.90
2023-03-22T05:02:40.775Z,99.90
2023-03-22T05:07:46.968Z,99.90
2023-03-22T05:12:54.055Z,99.90
2023-03-22T05:18:01.552Z,99.90
2023-03-22T05:23:07.333Z,99.90
2023-03-22T05:28:16.771Z,99.90
2023-03-22T05:33:24.164Z,99.90
2023-03-22T05:38:31.973Z,99.90
2023-03-22T05:43:39.306Z,99.90
2023-03-22T05:48:46.294Z,99.90
2023-03-22T05:53:55.240Z,99.90
2023-03-22T05:59:02.749Z,99.90
2023-03-22T06:04:09.485Z,99.90
2023-03-22T06:09:17.850Z,99.90
2023-03-22T06:14:24.618Z,99.90
2023-03-22T06:19:31.286Z,99.90
2023-03-22T06:24:37.500Z,99.90
2023-03-22T06:29:44.362Z,99.90
2023-03-22T06:34:52.263Z,99.90
2023-03-22T06:39:59.583Z,99.90
2023-03-22T06:45:08.289Z,99.90
2023-03-22T06:50:16.564Z,99.90
2023-03-22T06:55:23.497Z,99.90
2023-03-22T07:00:32.166Z,99.90
2023-03-22T07:05:39.401Z,99.90
2023-03-22T07:10:49.356Z,99.90
2023-03-22T07:16:01.268Z,99.90
2023-03-22T07:21:08.273Z,99.90
2023-03-22T07:26:16.647Z,99.90
2023-03-22T07:31:24.152Z,99.90
2023-03-22T07:36:31.219Z,99.90
2023-03-22T07:41:37.960Z,99.90
2023-03-22T07:46:46.002Z,54.40
2023-03-22T07:51:52.803Z,1.00
2023-03-22T07:56:59.802Z,1.00
2023-03-22T08:02:08.012Z,1.00
2023-03-22T08:07:15.870Z,1.00
2023-03-22T08:12:22.609Z,71.80
2023-03-22T08:17:30.709Z,99.90
2023-03-22T08:22:38.440Z,99.90
2023-03-22T08:27:45.088Z,99.90
2023-03-22T08:32:51.494Z,99.90
2023-03-22T08:37:58.778Z,99.90
2023-03-22T08:43:05.908Z,99.90
2023-03-22T08:48:12.429Z,99.90
2023-03-22T08:53:19.285Z,99.90
2023-03-22T08:58:26.556Z,99.90
2023-03-22T09:03:33.375Z,99.90
2023-03-22T09:08:40.046Z,99.90
2023-03-22T09:13:47.197Z,99.90
2023-03-22T09:18:53.726Z,96.40
2023-03-22T09:24:00.777Z,95.30
2023-03-22T09:29:07.593Z,93.70
2023-03-22T09:34:16.516Z,92.90
2023-03-22T09:39:23.467Z,93.50
2023-03-22T09:44:45.829Z,93.40
2023-03-22T09:49:56.808Z,94.40
2023-03-22T09:55:03.655Z,95.40
2023-03-22T10:00:23.484Z,95.10
2023-03-22T10:05:39.191Z,95.70
2023-03-22T10:10:45.996Z,96.10
2023-03-22T10:15:57.518Z,95.20
2023-03-22T10:21:13.021Z,94.10
2023-03-22T10:26:32.676Z,93.90
2023-03-22T10:31:44.630Z,94.20
2023-03-22T10:36:54.164Z,94.30
2023-03-22T10:42:05.936Z,93.50
2023-03-22T10:47:18.475Z,94.80
2023-03-22T10:52:44.433Z,93.80
2023-03-22T10:58:09.048Z,95.20
2023-03-22T11:03:42.061Z,94.40
2023-03-22T11:08:53.280Z,95.20
2023-03-22T11:14:16.289Z,95.20
2023-03-22T11:19:39.566Z,95.60
2023-03-22T11:24:48.726Z,94.50
2023-03-22T11:30:01.332Z,95.50
2023-03-22T11:35:17.729Z,95.50
2023-03-22T11:40:28.495Z,94.70
2023-03-22T11:45:38.586Z,94.60
2023-03-22T11:50:47.121Z,94.00
2023-03-22T11:56:02.336Z,93.70
2023-03-22T12:01:13.963Z,91.80
2023-03-22T12:06:28.027Z,93.00
2023-03-22T12:11:45.971Z,93.30
2023-03-22T12:17:00.120Z,92.00
2023-03-22T12:22:17.102Z,93.50
2023-03-22T12:27:28.123Z,91.30
2023-03-22T12:32:42.282Z,91.80
2023-03-22T12:37:55.109Z,90.80
2023-03-22T12:43:31.653Z,91.10
2023-03-22T12:48:47.696Z,91.50
2023-03-22T12:53:58.152Z,91.00
2023-03-22T12:59:09.383Z,91.80
2023-03-22T13:04:39.063Z,90.80
2023-03-22T13:09:51.323Z,90.80
2023-03-22T13:15:06.482Z,91.00
2023-03-22T13:20:22.448Z,91.20
2023-03-22T13:25:41.441Z,90.00
2023-03-22T13:30:55.175Z,90.20
2023-03-22T13:36:07.369Z,90.60
2023-03-22T13:41:35.615Z,91.30
2023-03-22T13:46:47.530Z,91.80
2023-03-22T13:51:55.481Z,91.50
2023-03-22T13:57:03.259Z,91.70
2023-03-22T14:02:23.408Z,91.40
2023-03-22T14:07:46.547Z,91.40
2023-03-22T14:13:30.849Z,91.80
2023-03-22T14:18:41.222Z,92.10
